sensor_id;sensor_type;location;lat;lon;timestamp;P1;durP1;ratioP1;P2;durP2;ratioP2
82038;SDS011;71610;42.628;23.378;2023-11-18T00:00:22;3.33;;;1.70;;
82038;SDS011;71610;42.628;23.378;2023-11-18T00:02:49;2.63;;;1.60;;
82038;SDS011;71610;42.628;23.378;2023-11-18T00:05:15;1.38;;;1.23;;
82038;SDS011;71610;42.628;23.378;2023-11-18T00:07:41;2.50;;;1.63;;
82038;SDS011;71610;42.628;23.378;2023-11-18T00:10:07;1.85;;;1.50;;
82038;SDS011;71610;42.628;23.378;2023-11-18T00:12:37;3.35;;;1.60;;
82038;SDS011;71610;42.628;23.378;2023-11-18T00:15:06;1.67;;;1.50;;
82038;SDS011;71610;42.628;23.378;2023-11-18T00:17:34;3.08;;;1.80;;
82038;SDS011;71610;42.628;23.378;2023-11-18T00:20:00;2.55;;;1.70;;
82038;SDS011;71610;42.628;23.378;2023-11-18T00:22:33;2.45;;;1.73;;
82038;SDS011;71610;42.628;23.378;2023-11-18T00:24:59;2.63;;;1.60;;
82038;SDS011;71610;42.628;23.378;2023-11-18T00:27:25;1.73;;;1.38;;
82038;SDS011;71610;42.628;23.378;2023-11-18T00:29:51;1.48;;;1.38;;
82038;SDS011;71610;42.628;23.378;2023-11-18T00:32:18;2.78;;;1.85;;
82038;SDS011;71610;42.628;23.378;2023-11-18T00:34:44;2.53;;;1.88;;
82038;SDS011;71610;42.628;23.378;2023-11-18T00:37:10;2.45;;;1.58;;
82038;SDS011;71610;42.628;23.378;2023-11-18T00:39:35;2.70;;;1.67;;
82038;SDS011;71610;42.628;23.378;2023-11-18T00:42:02;1.35;;;1.25;;
82038;SDS011;71610;42.628;23.378;2023-11-18T00:44:28;1.40;;;1.30;;
82038;SDS011;71610;42.628;23.378;2023-11-18T00:46:54;1.83;;;1.17;;
82038;SDS011;71610;42.628;23.378;2023-11-18T00:49:19;1.63;;;1.30;;
82038;SDS011;71610;42.628;23.378;2023-11-18T00:51:45;3.42;;;1.30;;
82038;SDS011;71610;42.628;23.378;2023-11-18T00:54:11;1.88;;;1.30;;
82038;SDS011;71610;42.628;23.378;2023-11-18T00:56:37;2.38;;;1.50;;
82038;SDS011;71610;42.628;23.378;2023-11-18T00:59:03;2.20;;;1.40;;
82038;SDS011;71610;42.628;23.378;2023-11-18T01:01:29;1.40;;;1.27;;
82038;SDS011;71610;42.628;23.378;2023-11-18T01:03:54;2.17;;;1.40;;
82038;SDS011;71610;42.628;23.378;2023-11-18T01:06:24;1.60;;;1.30;;
82038;SDS011;71610;42.628;23.378;2023-11-18T01:08:52;3.33;;;1.30;;
82038;SDS011;71610;42.628;23.378;2023-11-18T01:11:18;2.25;;;1.30;;
82038;SDS011;71610;42.628;23.378;2023-11-18T01:13:45;1.23;;;1.02;;
82038;SDS011;71610;42.628;23.378;2023-11-18T01:16:11;1.67;;;1.40;;
82038;SDS011;71610;42.628;23.378;2023-11-18T01:18:38;1.30;;;1.20;;
82038;SDS011;71610;42.628;23.378;2023-11-18T01:21:04;2.00;;;1.17;;
82038;SDS011;71610;42.628;23.378;2023-11-18T01:23:30;1.75;;;1.30;;
82038;SDS011;71610;42.628;23.378;2023-11-18T01:25:56;1.20;;;1.10;;
82038;SDS011;71610;42.628;23.378;2023-11-18T01:28:22;1.50;;;1.17;;
82038;SDS011;71610;42.628;23.378;2023-11-18T01:30:51;1.13;;;1.00;;
82038;SDS011;71610;42.628;23.378;2023-11-18T01:33:17;2.63;;;1.23;;
82038;SDS011;71610;42.628;23.378;2023-11-18T01:35:43;1.35;;;1.25;;
82038;SDS011;71610;42.628;23.378;2023-11-18T01:38:09;1.50;;;1.00;;
82038;SDS011;71610;42.628;23.378;2023-11-18T01:40:36;2.08;;;1.30;;
82038;SDS011;71610;42.628;23.378;2023-11-18T01:43:03;1.08;;;1.00;;
82038;SDS011;71610;42.628;23.378;2023-11-18T01:45:36;1.77;;;1.25;;
82038;SDS011;71610;42.628;23.378;2023-11-18T01:48:02;1.30;;;1.20;;
82038;SDS011;71610;42.628;23.378;2023-11-18T01:50:28;0.82;;;0.82;;
82038;SDS011;71610;42.628;23.378;2023-11-18T01:52:54;1.45;;;1.20;;
82038;SDS011;71610;42.628;23.378;2023-11-18T01:55:21;1.30;;;1.20;;
82038;SDS011;71610;42.628;23.378;2023-11-18T01:57:46;1.35;;;1.08;;
82038;SDS011;71610;42.628;23.378;2023-11-18T02:00:12;1.70;;;1.10;;
82038;SDS011;71610;42.628;23.378;2023-11-18T02:02:38;1.33;;;1.08;;
82038;SDS011;71610;42.628;23.378;2023-11-18T02:05:04;1.48;;;1.23;;
82038;SDS011;71610;42.628;23.378;2023-11-18T02:07:31;1.00;;;0.90;;
82038;SDS011;71610;42.628;23.378;2023-11-18T02:09:59;1.10;;;0.95;;
82038;SDS011;71610;42.628;23.378;2023-11-18T02:12:34;1.08;;;0.95;;
82038;SDS011;71610;42.628;23.378;2023-11-18T02:15:09;1.10;;;1.00;;
82038;SDS011;71610;42.628;23.378;2023-11-18T02:17:38;1.20;;;1.10;;
82038;SDS011;71610;42.628;23.378;2023-11-18T02:20:04;0.88;;;0.88;;
82038;SDS011;71610;42.628;23.378;2023-11-18T02:22:47;1.30;;;1.20;;
82038;SDS011;71610;42.628;23.378;2023-11-18T02:25:17;1.30;;;1.00;;
82038;SDS011;71610;42.628;23.378;2023-11-18T02:30:10;1.60;;;1.00;;
82038;SDS011;71610;42.628;23.378;2023-11-18T02:35:27;1.63;;;1.20;;
82038;SDS011;71610;42.628;23.378;2023-11-18T02:37:55;1.58;;;1.20;;
82038;SDS011;71610;42.628;23.378;2023-11-18T02:40:32;0.80;;;0.80;;
82038;SDS011;71610;42.628;23.378;2023-11-18T02:43:00;1.00;;;0.90;;
82038;SDS011;71610;42.628;23.378;2023-11-18T02:45:30;1.20;;;1.02;;
82038;SDS011;71610;42.628;23.378;2023-11-18T02:47:57;1.88;;;1.20;;
82038;SDS011;71610;42.628;23.378;2023-11-18T02:50:23;1.05;;;1.00;;
82038;SDS011;71610;42.628;23.378;2023-11-18T02:52:50;1.13;;;0.80;;
82038;SDS011;71610;42.628;23.378;2023-11-18T02:55:16;1.10;;;1.00;;
82038;SDS011;71610;42.628;23.378;2023-11-18T02:57:41;1.23;;;1.00;;
82038;SDS011;71610;42.628;23.378;2023-11-18T03:00:07;1.00;;;0.90;;
82038;SDS011;71610;42.628;23.378;2023-11-18T03:02:49;1.20;;;1.10;;
82038;SDS011;71610;42.628;23.378;2023-11-18T03:05:16;3.03;;;1.08;;
82038;SDS011;71610;42.628;23.378;2023-11-18T03:07:46;1.00;;;0.82;;
82038;SDS011;71610;42.628;23.378;2023-11-18T03:10:15;1.07;;;0.80;;
82038;SDS011;71610;42.628;23.378;2023-11-18T03:12:48;1.20;;;0.90;;
82038;SDS011;71610;42.628;23.378;2023-11-18T03:15:14;1.38;;;0.90;;
82038;SDS011;71610;42.628;23.378;2023-11-18T03:17:43;1.10;;;1.00;;
82038;SDS011;71610;42.628;23.378;2023-11-18T03:20:13;0.93;;;0.90;;
82038;SDS011;71610;42.628;23.378;2023-11-18T03:22:44;1.23;;;1.02;;
82038;SDS011;71610;42.628;23.378;2023-11-18T03:25:14;2.08;;;1.20;;
82038;SDS011;71610;42.628;23.378;2023-11-18T03:27:40;1.55;;;1.02;;
82038;SDS011;71610;42.628;23.378;2023-11-18T03:30:06;0.70;;;0.70;;
82038;SDS011;71610;42.628;23.378;2023-11-18T03:32:35;0.70;;;0.70;;
82038;SDS011;71610;42.628;23.378;2023-11-18T03:35:02;1.23;;;1.00;;
82038;SDS011;71610;42.628;23.378;2023-11-18T03:37:32;0.98;;;0.90;;
82038;SDS011;71610;42.628;23.378;2023-11-18T03:39:58;3.63;;;1.05;;
82038;SDS011;71610;42.628;23.378;2023-11-18T03:42:23;0.88;;;0.80;;
82038;SDS011;71610;42.628;23.378;2023-11-18T03:44:49;0.80;;;0.80;;
82038;SDS011;71610;42.628;23.378;2023-11-18T03:47:15;0.95;;;0.77;;
82038;SDS011;71610;42.628;23.378;2023-11-18T03:49:41;0.90;;;0.90;;
82038;SDS011;71610;42.628;23.378;2023-11-18T03:52:07;1.10;;;0.90;;
82038;SDS011;71610;42.628;23.378;2023-11-18T03:54:33;1.10;;;0.80;;
82038;SDS011;71610;42.628;23.378;2023-11-18T03:56:58;0.80;;;0.80;;
82038;SDS011;71610;42.628;23.378;2023-11-18T03:59:24;1.02;;;0.93;;
82038;SDS011;71610;42.628;23.378;2023-11-18T04:01:50;1.30;;;0.90;;
82038;SDS011;71610;42.628;23.378;2023-11-18T04:04:16;0.65;;;0.65;;
82038;SDS011;71610;42.628;23.378;2023-11-18T04:06:43;0.98;;;0.90;;
82038;SDS011;71610;42.628;23.378;2023-11-18T04:09:09;0.80;;;0.80;;
82038;SDS011;71610;42.628;23.378;2023-11-18T04:11:35;0.82;;;0.80;;
82038;SDS011;71610;42.628;23.378;2023-11-18T04:14:01;1.13;;;1.02;;
82038;SDS011;71610;42.628;23.378;2023-11-18T04:16:30;0.65;;;0.65;;
82038;SDS011;71610;42.628;23.378;2023-11-18T04:18:55;2.03;;;0.93;;
82038;SDS011;71610;42.628;23.378;2023-11-18T04:21:21;2.10;;;0.93;;
82038;SDS011;71610;42.628;23.378;2023-11-18T04:23:47;1.35;;;0.90;;
82038;SDS011;71610;42.628;23.378;2023-11-18T04:26:13;1.05;;;0.98;;
82038;SDS011;71610;42.628;23.378;2023-11-18T04:28:38;0.90;;;0.80;;
82038;SDS011;71610;42.628;23.378;2023-11-18T04:31:04;1.10;;;1.00;;
82038;SDS011;71610;42.628;23.378;2023-11-18T04:33:30;1.10;;;0.73;;
82038;SDS011;71610;42.628;23.378;2023-11-18T04:35:56;0.88;;;0.82;;
82038;SDS011;71610;42.628;23.378;2023-11-18T04:38:23;1.00;;;1.00;;
82038;SDS011;71610;42.628;23.378;2023-11-18T04:40:49;0.73;;;0.73;;
82038;SDS011;71610;42.628;23.378;2023-11-18T04:43:14;1.30;;;0.80;;
82038;SDS011;71610;42.628;23.378;2023-11-18T04:45:41;0.80;;;0.80;;
82038;SDS011;71610;42.628;23.378;2023-11-18T04:48:07;0.80;;;0.80;;
82038;SDS011;71610;42.628;23.378;2023-11-18T04:50:33;0.70;;;0.70;;
82038;SDS011;71610;42.628;23.378;2023-11-18T04:52:59;1.30;;;1.10;;
82038;SDS011;71610;42.628;23.378;2023-11-18T04:55:25;0.60;;;0.60;;
82038;SDS011;71610;42.628;23.378;2023-11-18T04:57:51;0.70;;;0.70;;
82038;SDS011;71610;42.628;23.378;2023-11-18T05:00:17;0.77;;;0.77;;
82038;SDS011;71610;42.628;23.378;2023-11-18T05:02:44;0.82;;;0.82;;
82038;SDS011;71610;42.628;23.378;2023-11-18T05:05:14;0.80;;;0.80;;
82038;SDS011;71610;42.628;23.378;2023-11-18T05:07:41;0.70;;;0.70;;
82038;SDS011;71610;42.628;23.378;2023-11-18T05:10:07;0.70;;;0.70;;
82038;SDS011;71610;42.628;23.378;2023-11-18T05:12:35;0.60;;;0.60;;
82038;SDS011;71610;42.628;23.378;2023-11-18T05:15:05;0.80;;;0.80;;
82038;SDS011;71610;42.628;23.378;2023-11-18T05:17:36;1.13;;;0.82;;
82038;SDS011;71610;42.628;23.378;2023-11-18T05:20:05;0.70;;;0.70;;
82038;SDS011;71610;42.628;23.378;2023-11-18T05:22:36;1.13;;;0.80;;
82038;SDS011;71610;42.628;23.378;2023-11-18T05:25:02;0.90;;;0.90;;
82038;SDS011;71610;42.628;23.378;2023-11-18T05:27:29;0.70;;;0.70;;
82038;SDS011;71610;42.628;23.378;2023-11-18T05:29:56;1.02;;;0.70;;
82038;SDS011;71610;42.628;23.378;2023-11-18T05:32:26;0.85;;;0.85;;
82038;SDS011;71610;42.628;23.378;2023-11-18T05:34:52;1.50;;;0.73;;
82038;SDS011;71610;42.628;23.378;2023-11-18T05:37:20;0.80;;;0.80;;
82038;SDS011;71610;42.628;23.378;2023-11-18T05:39:46;0.70;;;0.70;;
82038;SDS011;71610;42.628;23.378;2023-11-18T05:42:14;1.08;;;0.80;;
82038;SDS011;71610;42.628;23.378;2023-11-18T05:44:40;1.00;;;0.90;;
82038;SDS011;71610;42.628;23.378;2023-11-18T05:47:07;0.73;;;0.73;;
82038;SDS011;71610;42.628;23.378;2023-11-18T05:49:36;0.90;;;0.90;;
82038;SDS011;71610;42.628;23.378;2023-11-18T05:52:03;0.77;;;0.77;;
82038;SDS011;71610;42.628;23.378;2023-11-18T05:54:29;0.70;;;0.70;;
82038;SDS011;71610;42.628;23.378;2023-11-18T05:56:55;0.85;;;0.82;;
82038;SDS011;71610;42.628;23.378;2023-11-18T05:59:21;1.40;;;0.70;;
82038;SDS011;71610;42.628;23.378;2023-11-18T06:01:48;1.25;;;0.70;;
82038;SDS011;71610;42.628;23.378;2023-11-18T06:04:14;0.80;;;0.80;;
82038;SDS011;71610;42.628;23.378;2023-11-18T06:06:40;0.80;;;0.80;;
82038;SDS011;71610;42.628;23.378;2023-11-18T06:09:07;0.70;;;0.70;;
82038;SDS011;71610;42.628;23.378;2023-11-18T06:11:43;0.88;;;0.88;;
82038;SDS011;71610;42.628;23.378;2023-11-18T06:14:09;0.73;;;0.70;;
82038;SDS011;71610;42.628;23.378;2023-11-18T06:16:37;0.73;;;0.73;;
82038;SDS011;71610;42.628;23.378;2023-11-18T06:19:04;1.23;;;0.88;;
82038;SDS011;71610;42.628;23.378;2023-11-18T06:21:31;0.80;;;0.70;;
82038;SDS011;71610;42.628;23.378;2023-11-18T06:23:57;0.90;;;0.70;;
82038;SDS011;71610;42.628;23.378;2023-11-18T06:26:24;0.70;;;0.70;;
82038;SDS011;71610;42.628;23.378;2023-11-18T06:28:52;0.82;;;0.70;;
82038;SDS011;71610;42.628;23.378;2023-11-18T06:31:18;0.60;;;0.60;;
82038;SDS011;71610;42.628;23.378;2023-11-18T06:33:45;2.28;;;0.70;;
82038;SDS011;71610;42.628;23.378;2023-11-18T06:38:50;0.77;;;0.70;;
82038;SDS011;71610;42.628;23.378;2023-11-18T06:43:45;0.65;;;0.65;;
82038;SDS011;71610;42.628;23.378;2023-11-18T06:46:20;0.73;;;0.70;;
82038;SDS011;71610;42.628;23.378;2023-11-18T06:48:48;0.60;;;0.60;;
82038;SDS011;71610;42.628;23.378;2023-11-18T06:51:14;0.70;;;0.70;;
82038;SDS011;71610;42.628;23.378;2023-11-18T06:53:41;0.73;;;0.60;;
82038;SDS011;71610;42.628;23.378;2023-11-18T06:56:08;0.60;;;0.60;;
82038;SDS011;71610;42.628;23.378;2023-11-18T06:58:36;0.50;;;0.50;;
82038;SDS011;71610;42.628;23.378;2023-11-18T07:01:06;0.60;;;0.60;;
82038;SDS011;71610;42.628;23.378;2023-11-18T07:03:31;0.60;;;0.60;;
82038;SDS011;71610;42.628;23.378;2023-11-18T07:05:57;0.60;;;0.60;;
82038;SDS011;71610;42.628;23.378;2023-11-18T07:08:23;0.65;;;0.65;;
82038;SDS011;71610;42.628;23.378;2023-11-18T07:10:49;2.05;;;0.70;;
82038;SDS011;71610;42.628;23.378;2023-11-18T07:13:15;0.68;;;0.68;;
82038;SDS011;71610;42.628;23.378;2023-11-18T07:15:41;1.23;;;0.80;;
82038;SDS011;71610;42.628;23.378;2023-11-18T07:18:07;0.60;;;0.60;;
82038;SDS011;71610;42.628;23.378;2023-11-18T07:20:34;0.70;;;0.70;;
82038;SDS011;71610;42.628;23.378;2023-11-18T07:23:00;2.53;;;0.70;;
82038;SDS011;71610;42.628;23.378;2023-11-18T07:25:25;1.13;;;0.65;;
82038;SDS011;71610;42.628;23.378;2023-11-18T07:27:52;0.60;;;0.60;;
82038;SDS011;71610;42.628;23.378;2023-11-18T07:30:17;0.50;;;0.50;;
82038;SDS011;71610;42.628;23.378;2023-11-18T07:32:43;0.60;;;0.60;;
82038;SDS011;71610;42.628;23.378;2023-11-18T07:35:09;0.57;;;0.57;;
82038;SDS011;71610;42.628;23.378;2023-11-18T07:37:36;0.60;;;0.60;;
82038;SDS011;71610;42.628;23.378;2023-11-18T07:40:03;0.80;;;0.70;;
82038;SDS011;71610;42.628;23.378;2023-11-18T07:42:33;0.60;;;0.60;;
82038;SDS011;71610;42.628;23.378;2023-11-18T07:45:01;0.68;;;0.68;;
82038;SDS011;71610;42.628;23.378;2023-11-18T07:47:29;0.45;;;0.45;;
82038;SDS011;71610;42.628;23.378;2023-11-18T07:49:57;0.52;;;0.50;;
82038;SDS011;71610;42.628;23.378;2023-11-18T07:52:24;0.60;;;0.60;;
82038;SDS011;71610;42.628;23.378;2023-11-18T07:54:53;0.57;;;0.57;;
82038;SDS011;71610;42.628;23.378;2023-11-18T07:57:19;0.50;;;0.50;;
82038;SDS011;71610;42.628;23.378;2023-11-18T07:59:45;0.60;;;0.60;;
82038;SDS011;71610;42.628;23.378;2023-11-18T08:02:10;0.40;;;0.40;;
82038;SDS011;71610;42.628;23.378;2023-11-18T08:04:36;0.60;;;0.60;;
82038;SDS011;71610;42.628;23.378;2023-11-18T08:07:02;0.70;;;0.50;;
82038;SDS011;71610;42.628;23.378;2023-11-18T08:09:30;0.63;;;0.63;;
82038;SDS011;71610;42.628;23.378;2023-11-18T08:11:57;0.60;;;0.60;;
82038;SDS011;71610;42.628;23.378;2023-11-18T08:14:23;0.47;;;0.47;;
82038;SDS011;71610;42.628;23.378;2023-11-18T08:16:49;0.57;;;0.57;;
82038;SDS011;71610;42.628;23.378;2023-11-18T08:19:16;1.00;;;0.60;;
82038;SDS011;71610;42.628;23.378;2023-11-18T08:21:42;0.47;;;0.47;;
82038;SDS011;71610;42.628;23.378;2023-11-18T08:24:08;0.45;;;0.32;;
82038;SDS011;71610;42.628;23.378;2023-11-18T08:26:34;0.60;;;0.60;;
82038;SDS011;71610;42.628;23.378;2023-11-18T08:29:01;0.50;;;0.50;;
82038;SDS011;71610;42.628;23.378;2023-11-18T08:31:26;0.60;;;0.60;;
82038;SDS011;71610;42.628;23.378;2023-11-18T08:33:52;0.55;;;0.55;;
82038;SDS011;71610;42.628;23.378;2023-11-18T08:36:19;0.50;;;0.50;;
82038;SDS011;71610;42.628;23.378;2023-11-18T08:38:47;0.50;;;0.50;;
82038;SDS011;71610;42.628;23.378;2023-11-18T08:41:14;0.60;;;0.60;;
82038;SDS011;71610;42.628;23.378;2023-11-18T08:43:40;0.60;;;0.60;;
82038;SDS011;71610;42.628;23.378;2023-11-18T08:46:06;0.55;;;0.55;;
82038;SDS011;71610;42.628;23.378;2023-11-18T08:48:32;0.43;;;0.40;;
82038;SDS011;71610;42.628;23.378;2023-11-18T08:50:59;0.82;;;0.47;;
82038;SDS011;71610;42.628;23.378;2023-11-18T08:53:26;0.47;;;0.47;;
82038;SDS011;71610;42.628;23.378;2023-11-18T08:55:52;0.50;;;0.50;;
82038;SDS011;71610;42.628;23.378;2023-11-18T08:58:21;1.08;;;0.57;;
82038;SDS011;71610;42.628;23.378;2023-11-18T09:00:48;0.40;;;0.40;;
82038;SDS011;71610;42.628;23.378;2023-11-18T09:03:26;0.57;;;0.57;;
82038;SDS011;71610;42.628;23.378;2023-11-18T09:05:52;1.65;;;0.43;;
82038;SDS011;71610;42.628;23.378;2023-11-18T09:10:48;0.35;;;0.35;;
82038;SDS011;71610;42.628;23.378;2023-11-18T09:13:18;0.40;;;0.40;;
82038;SDS011;71610;42.628;23.378;2023-11-18T09:15:54;0.40;;;0.40;;
82038;SDS011;71610;42.628;23.378;2023-11-18T09:18:25;0.50;;;0.50;;
82038;SDS011;71610;42.628;23.378;2023-11-18T09:20:52;0.57;;;0.43;;
82038;SDS011;71610;42.628;23.378;2023-11-18T09:23:24;0.40;;;0.40;;
82038;SDS011;71610;42.628;23.378;2023-11-18T09:25:52;0.40;;;0.40;;
82038;SDS011;71610;42.628;23.378;2023-11-18T09:28:24;0.35;;;0.35;;
82038;SDS011;71610;42.628;23.378;2023-11-18T09:30:55;0.40;;;0.40;;
82038;SDS011;71610;42.628;23.378;2023-11-18T09:33:28;1.05;;;0.50;;
82038;SDS011;71610;42.628;23.378;2023-11-18T09:35:59;0.47;;;0.47;;
82038;SDS011;71610;42.628;23.378;2023-11-18T09:38:26;0.40;;;0.40;;
82038;SDS011;71610;42.628;23.378;2023-11-18T09:40:59;0.40;;;0.40;;
82038;SDS011;71610;42.628;23.378;2023-11-18T09:43:28;0.63;;;0.45;;
82038;SDS011;71610;42.628;23.378;2023-11-18T09:46:01;1.48;;;0.60;;
82038;SDS011;71610;42.628;23.378;2023-11-18T09:48:37;0.50;;;0.50;;
82038;SDS011;71610;42.628;23.378;2023-11-18T09:51:24;0.40;;;0.40;;
82038;SDS011;71610;42.628;23.378;2023-11-18T09:53:55;2.72;;;0.30;;
82038;SDS011;71610;42.628;23.378;2023-11-18T09:56:31;0.50;;;0.50;;
82038;SDS011;71610;42.628;23.378;2023-11-18T10:01:53;0.63;;;0.50;;
82038;SDS011;71610;42.628;23.378;2023-11-18T10:04:23;0.38;;;0.38;;
82038;SDS011;71610;42.628;23.378;2023-11-18T10:06:52;0.40;;;0.40;;
82038;SDS011;71610;42.628;23.378;2023-11-18T10:09:19;0.50;;;0.50;;
82038;SDS011;71610;42.628;23.378;2023-11-18T10:11:53;0.93;;;0.40;;
82038;SDS011;71610;42.628;23.378;2023-11-18T10:14:30;0.40;;;0.40;;
82038;SDS011;71610;42.628;23.378;2023-11-18T10:17:03;0.40;;;0.40;;
82038;SDS011;71610;42.628;23.378;2023-11-18T10:19:51;0.40;;;0.40;;
82038;SDS011;71610;42.628;23.378;2023-11-18T10:22:22;0.52;;;0.52;;
82038;SDS011;71610;42.628;23.378;2023-11-18T10:24:49;0.47;;;0.43;;
82038;SDS011;71610;42.628;23.378;2023-11-18T10:29:50;0.55;;;0.55;;
82038;SDS011;71610;42.628;23.378;2023-11-18T10:32:21;0.30;;;0.30;;
82038;SDS011;71610;42.628;23.378;2023-11-18T10:34:48;0.65;;;0.50;;
82038;SDS011;71610;42.628;23.378;2023-11-18T10:37:16;0.57;;;0.40;;
82038;SDS011;71610;42.628;23.378;2023-11-18T10:39:46;0.50;;;0.50;;
82038;SDS011;71610;42.628;23.378;2023-11-18T10:42:16;0.50;;;0.50;;
82038;SDS011;71610;42.628;23.378;2023-11-18T10:44:55;0.35;;;0.35;;
82038;SDS011;71610;42.628;23.378;2023-11-18T10:47:27;0.60;;;0.40;;
82038;SDS011;71610;42.628;23.378;2023-11-18T10:49:56;0.45;;;0.45;;
82038;SDS011;71610;42.628;23.378;2023-11-18T10:52:22;0.50;;;0.50;;
82038;SDS011;71610;42.628;23.378;2023-11-18T10:54:51;2.72;;;0.43;;
82038;SDS011;71610;42.628;23.378;2023-11-18T10:57:19;0.68;;;0.40;;
82038;SDS011;71610;42.628;23.378;2023-11-18T11:00:02;0.43;;;0.40;;
82038;SDS011;71610;42.628;23.378;2023-11-18T11:02:32;0.38;;;0.38;;
82038;SDS011;71610;42.628;23.378;2023-11-18T11:05:04;0.63;;;0.50;;
82038;SDS011;71610;42.628;23.378;2023-11-18T11:07:40;0.43;;;0.43;;
82038;SDS011;71610;42.628;23.378;2023-11-18T11:10:07;0.40;;;0.40;;
82038;SDS011;71610;42.628;23.378;2023-11-18T11:12:36;0.40;;;0.40;;
82038;SDS011;71610;42.628;23.378;2023-11-18T11:15:22;0.50;;;0.40;;
82038;SDS011;71610;42.628;23.378;2023-11-18T11:17:54;0.40;;;0.40;;
82038;SDS011;71610;42.628;23.378;2023-11-18T11:20:41;2.65;;;0.40;;
82038;SDS011;71610;42.628;23.378;2023-11-18T11:29:09;0.32;;;0.30;;
82038;SDS011;71610;42.628;23.378;2023-11-18T11:31:44;0.40;;;0.40;;
82038;SDS011;71610;42.628;23.378;2023-11-18T11:34:25;0.40;;;0.40;;
82038;SDS011;71610;42.628;23.378;2023-11-18T11:36:54;0.50;;;0.50;;
82038;SDS011;71610;42.628;23.378;2023-11-18T11:39:24;2.30;;;0.45;;
82038;SDS011;71610;42.628;23.378;2023-11-18T11:41:55;0.40;;;0.40;;
82038;SDS011;71610;42.628;23.378;2023-11-18T11:44:22;0.40;;;0.40;;
82038;SDS011;71610;42.628;23.378;2023-11-18T11:46:57;0.43;;;0.43;;
82038;SDS011;71610;42.628;23.378;2023-11-18T11:49:25;0.40;;;0.35;;
82038;SDS011;71610;42.628;23.378;2023-11-18T11:54:48;1.20;;;0.57;;
82038;SDS011;71610;42.628;23.378;2023-11-18T11:57:22;1.95;;;0.40;;
82038;SDS011;71610;42.628;23.378;2023-11-18T12:02:17;0.43;;;0.35;;
82038;SDS011;71610;42.628;23.378;2023-11-18T12:04:49;0.30;;;0.30;;
82038;SDS011;71610;42.628;23.378;2023-11-18T12:07:22;2.65;;;0.40;;
82038;SDS011;71610;42.628;23.378;2023-11-18T12:09:51;0.32;;;0.30;;
82038;SDS011;71610;42.628;23.378;2023-11-18T12:12:24;0.47;;;0.47;;
82038;SDS011;71610;42.628;23.378;2023-11-18T12:14:56;0.90;;;0.40;;
82038;SDS011;71610;42.628;23.378;2023-11-18T12:19:56;1.10;;;0.40;;
82038;SDS011;71610;42.628;23.378;2023-11-18T12:22:31;0.70;;;0.30;;
82038;SDS011;71610;42.628;23.378;2023-11-18T12:25:32;0.50;;;0.50;;
82038;SDS011;71610;42.628;23.378;2023-11-18T12:27:57;1.58;;;0.60;;
82038;SDS011;71610;42.628;23.378;2023-11-18T12:35:35;0.30;;;0.30;;
82038;SDS011;71610;42.628;23.378;2023-11-18T12:44:29;0.50;;;0.50;;
82038;SDS011;71610;42.628;23.378;2023-11-18T12:49:46;1.30;;;0.50;;
82038;SDS011;71610;42.628;23.378;2023-11-18T12:52:21;0.52;;;0.52;;
82038;SDS011;71610;42.628;23.378;2023-11-18T12:54:48;0.40;;;0.40;;
82038;SDS011;71610;42.628;23.378;2023-11-18T12:57:26;0.35;;;0.35;;
82038;SDS011;71610;42.628;23.378;2023-11-18T12:59:56;0.47;;;0.40;;
82038;SDS011;71610;42.628;23.378;2023-11-18T13:02:22;0.68;;;0.50;;
82038;SDS011;71610;42.628;23.378;2023-11-18T13:04:48;0.90;;;0.63;;
82038;SDS011;71610;42.628;23.378;2023-11-18T13:07:15;1.05;;;0.50;;
82038;SDS011;71610;42.628;23.378;2023-11-18T13:09:42;0.50;;;0.50;;
82038;SDS011;71610;42.628;23.378;2023-11-18T13:12:10;0.77;;;0.50;;
82038;SDS011;71610;42.628;23.378;2023-11-18T13:14:40;0.40;;;0.40;;
82038;SDS011;71610;42.628;23.378;2023-11-18T13:17:10;0.50;;;0.50;;
82038;SDS011;71610;42.628;23.378;2023-11-18T13:19:37;0.30;;;0.30;;
82038;SDS011;71610;42.628;23.378;2023-11-18T13:22:05;0.50;;;0.50;;
82038;SDS011;71610;42.628;23.378;2023-11-18T13:24:35;1.10;;;0.60;;
82038;SDS011;71610;42.628;23.378;2023-11-18T13:29:32;1.00;;;0.40;;
82038;SDS011;71610;42.628;23.378;2023-11-18T13:32:01;1.10;;;0.60;;
82038;SDS011;71610;42.628;23.378;2023-11-18T13:34:32;0.40;;;0.40;;
82038;SDS011;71610;42.628;23.378;2023-11-18T13:37:03;2.05;;;0.50;;
82038;SDS011;71610;42.628;23.378;2023-11-18T13:39:31;2.47;;;0.50;;
82038;SDS011;71610;42.628;23.378;2023-11-18T13:41:58;0.63;;;0.43;;
82038;SDS011;71610;42.628;23.378;2023-11-18T13:44:42;0.45;;;0.45;;
82038;SDS011;71610;42.628;23.378;2023-11-18T13:47:09;0.50;;;0.40;;
82038;SDS011;71610;42.628;23.378;2023-11-18T13:49:39;0.90;;;0.38;;
82038;SDS011;71610;42.628;23.378;2023-11-18T13:52:05;0.73;;;0.40;;
82038;SDS011;71610;42.628;23.378;2023-11-18T13:54:34;1.98;;;0.50;;
82038;SDS011;71610;42.628;23.378;2023-11-18T13:57:00;1.08;;;0.50;;
82038;SDS011;71610;42.628;23.378;2023-11-18T13:59:28;0.55;;;0.55;;
82038;SDS011;71610;42.628;23.378;2023-11-18T14:01:54;0.47;;;0.47;;
82038;SDS011;71610;42.628;23.378;2023-11-18T14:04:24;0.50;;;0.50;;
82038;SDS011;71610;42.628;23.378;2023-11-18T14:06:53;0.45;;;0.45;;
82038;SDS011;71610;42.628;23.378;2023-11-18T14:09:22;0.43;;;0.40;;
82038;SDS011;71610;42.628;23.378;2023-11-18T14:11:53;0.82;;;0.80;;
82038;SDS011;71610;42.628;23.378;2023-11-18T14:14:22;0.63;;;0.47;;
82038;SDS011;71610;42.628;23.378;2023-11-18T14:16:52;1.42;;;0.50;;
82038;SDS011;71610;42.628;23.378;2023-11-18T14:19:19;1.65;;;0.55;;
82038;SDS011;71610;42.628;23.378;2023-11-18T14:21:45;0.57;;;0.57;;
82038;SDS011;71610;42.628;23.378;2023-11-18T14:24:11;1.00;;;0.60;;
82038;SDS011;71610;42.628;23.378;2023-11-18T14:26:37;0.80;;;0.50;;
82038;SDS011;71610;42.628;23.378;2023-11-18T14:29:05;0.55;;;0.40;;
82038;SDS011;71610;42.628;23.378;2023-11-18T14:31:32;0.50;;;0.50;;
82038;SDS011;71610;42.628;23.378;2023-11-18T14:33:59;0.70;;;0.70;;
82038;SDS011;71610;42.628;23.378;2023-11-18T14:36:25;0.52;;;0.52;;
82038;SDS011;71610;42.628;23.378;2023-11-18T14:38:51;0.57;;;0.57;;
82038;SDS011;71610;42.628;23.378;2023-11-18T14:41:17;0.40;;;0.40;;
82038;SDS011;71610;42.628;23.378;2023-11-18T14:43:45;2.33;;;0.77;;
82038;SDS011;71610;42.628;23.378;2023-11-18T14:46:11;0.68;;;0.68;;
82038;SDS011;71610;42.628;23.378;2023-11-18T14:48:38;0.40;;;0.40;;
82038;SDS011;71610;42.628;23.378;2023-11-18T14:51:04;0.75;;;0.60;;
82038;SDS011;71610;42.628;23.378;2023-11-18T14:53:32;0.40;;;0.40;;
82038;SDS011;71610;42.628;23.378;2023-11-18T14:55:59;2.78;;;0.70;;
82038;SDS011;71610;42.628;23.378;2023-11-18T14:58:25;1.30;;;0.60;;
82038;SDS011;71610;42.628;23.378;2023-11-18T15:00:51;0.55;;;0.55;;
82038;SDS011;71610;42.628;23.378;2023-11-18T15:03:17;0.77;;;0.77;;
82038;SDS011;71610;42.628;23.378;2023-11-18T15:05:42;0.45;;;0.45;;
82038;SDS011;71610;42.628;23.378;2023-11-18T15:08:11;0.70;;;0.70;;
82038;SDS011;71610;42.628;23.378;2023-11-18T15:10:39;1.58;;;0.40;;
82038;SDS011;71610;42.628;23.378;2023-11-18T15:13:07;0.70;;;0.60;;
82038;SDS011;71610;42.628;23.378;2023-11-18T15:15:38;0.60;;;0.60;;
82038;SDS011;71610;42.628;23.378;2023-11-18T15:18:04;0.60;;;0.60;;
82038;SDS011;71610;42.628;23.378;2023-11-18T15:20:33;1.23;;;0.80;;
82038;SDS011;71610;42.628;23.378;2023-11-18T15:22:59;0.50;;;0.50;;
82038;SDS011;71610;42.628;23.378;2023-11-18T15:25:25;0.63;;;0.63;;
82038;SDS011;71610;42.628;23.378;2023-11-18T15:27:52;0.90;;;0.63;;